sensor_id;sensor_type;location;lat;lon;timestamp;temperature;humidity
12655;DHT22;6392;44.644;11.448;2023-03-01T00:00:19;6.50;99.90
12655;DHT22;6392;44.644;11.448;2023-03-01T00:02:46;6.50;99.90
12655;DHT22;6392;44.644;11.448;2023-03-01T00:05:13;6.40;99.90
12655;DHT22;6392;44.644;11.448;2023-03-01T00:07:40;6.40;99.90
12655;DHT22;6392;44.644;11.448;2023-03-01T00:10:08;6.40;99.90
12655;DHT22;6392;44.644;11.448;2023-03-01T00:12:37;6.40;99.90
12655;DHT22;6392;44.644;11.448;2023-03-01T00:15:04;6.40;99.90
12655;DHT22;6392;44.644;11.448;2023-03-01T00:17:31;6.50;99.90
12655;DHT22;6392;44.644;11.448;2023-03-01T00:19:58;6.50;99.90
12655;DHT22;6392;44.644;11.448;2023-03-01T00:22:27;6.50;99.90
12655;DHT22;6392;44.644;11.448;2023-03-01T00:24:54;6.50;99.90
12655;DHT22;6392;44.644;11.448;2023-03-01T00:27:21;6.50;99.90
12655;DHT22;6392;44.644;11.448;2023-03-01T00:29:50;6.50;99.90
12655;DHT22;6392;44.644;11.448;2023-03-01T00:32:17;6.50;99.90
12655;DHT22;6392;44.644;11.448;2023-03-01T00:34:44;6.50;99.90
12655;DHT22;6392;44.644;11.448;2023-03-01T00:37:20;6.50;99.90
12655;DHT22;6392;44.644;11.448;2023-03-01T00:39:47;6.50;99.90
12655;DHT22;6392;44.644;11.448;2023-03-01T00:42:14;6.50;99.90
12655;DHT22;6392;44.644;11.448;2023-03-01T00:44:42;6.50;99.90
12655;DHT22;6392;44.644;11.448;2023-03-01T00:47:10;6.50;99.90
12655;DHT22;6392;44.644;11.448;2023-03-01T00:49:37;6.50;99.90
12655;DHT22;6392;44.644;11.448;2023-03-01T00:52:04;6.40;99.90
12655;DHT22;6392;44.644;11.448;2023-03-01T00:54:31;6.30;99.90
12655;DHT22;6392;44.644;11.448;2023-03-01T00:56:58;6.30;99.90
12655;DHT22;6392;44.644;11.448;2023-03-01T00:59:25;6.20;99.90
12655;DHT22;6392;44.644;11.448;2023-03-01T01:01:52;6.20;99.90
12655;DHT22;6392;44.644;11.448;2023-03-01T01:04:20;6.20;99.90
12655;DHT22;6392;44.644;11.448;2023-03-01T01:06:48;6.10;99.90
12655;DHT22;6392;44.644;11.448;2023-03-01T01:09:16;6.10;99.90
12655;DHT22;6392;44.644;11.448;2023-03-01T01:11:44;6.10;99.90
12655;DHT22;6392;44.644;11.448;2023-03-01T01:14:12;6.10;99.90
12655;DHT22;6392;44.644;11.448;2023-03-01T01:16:39;6.10;99.90
12655;DHT22;6392;44.644;11.448;2023-03-01T01:19:06;6.10;99.90
12655;DHT22;6392;44.644;11.448;2023-03-01T01:21:35;6.10;99.90
12655;DHT22;6392;44.644;11.448;2023-03-01T01:24:03;6.10;99.90
12655;DHT22;6392;44.644;11.448;2023-03-01T01:26:32;6.10;99.90
12655;DHT22;6392;44.644;11.448;2023-03-01T01:29:00;6.10;99.90
12655;DHT22;6392;44.644;11.448;2023-03-01T01:31:29;6.10;99.90
12655;DHT22;6392;44.644;11.448;2023-03-01T01:33:57;6.10;99.90
12655;DHT22;6392;44.644;11.448;2023-03-01T01:36:24;6.00;99.90
12655;DHT22;6392;44.644;11.448;2023-03-01T01:38:53;6.00;99.90
12655;DHT22;6392;44.644;11.448;2023-03-01T01:41:21;6.00;99.90
12655;DHT22;6392;44.644;11.448;2023-03-01T01:43:49;6.00;99.90
12655;DHT22;6392;44.644;11.448;2023-03-01T01:46:23;6.00;99.90
12655;DHT22;6392;44.644;11.448;2023-03-01T01:48:55;5.90;99.90
12655;DHT22;6392;44.644;11.448;2023-03-01T01:51:27;5.90;99.90
12655;DHT22;6392;44.644;11.448;2023-03-01T01:53:59;5.90;99.90
12655;DHT22;6392;44.644;11.448;2023-03-01T01:56:29;5.90;99.90
12655;DHT22;6392;44.644;11.448;2023-03-01T01:58:57;5.90;99.90
12655;DHT22;6392;44.644;11.448;2023-03-01T02:01:24;5.80;99.90
12655;DHT22;6392;44.644;11.448;2023-03-01T02:03:52;5.80;99.90
12655;DHT22;6392;44.644;11.448;2023-03-01T02:06:24;5.80;99.90
12655;DHT22;6392;44.644;11.448;2023-03-01T02:08:57;5.80;99.90
12655;DHT22;6392;44.644;11.448;2023-03-01T02:11:26;5.80;99.90
12655;DHT22;6392;44.644;11.448;2023-03-01T02:13:54;5.90;99.90
12655;DHT22;6392;44.644;11.448;2023-03-01T02:16:22;5.90;99.90
12655;DHT22;6392;44.644;11.448;2023-03-01T02:18:50;5.90;99.90
12655;DHT22;6392;44.644;11.448;2023-03-01T02:21:30;5.80;99.90
12655;DHT22;6392;44.644;11.448;2023-03-01T02:24:10;5.80;99.90
12655;DHT22;6392;44.644;11.448;2023-03-01T02:26:42;5.80;99.90
12655;DHT22;6392;44.644;11.448;2023-03-01T02:29:13;5.80;99.90
12655;DHT22;6392;44.644;11.448;2023-03-01T02:31:40;5.80;99.90
12655;DHT22;6392;44.644;11.448;2023-03-01T02:34:12;5.80;99.90
12655;DHT22;6392;44.644;11.448;2023-03-01T02:36:41;5.80;99.90
12655;DHT22;6392;44.644;11.448;2023-03-01T02:39:14;5.70;99.90
12655;DHT22;6392;44.644;11.448;2023-03-01T02:41:46;5.80;99.90
12655;DHT22;6392;44.644;11.448;2023-03-01T02:44:16;5.80;99.90
12655;DHT22;6392;44.644;11.448;2023-03-01T02:46:46;5.80;99.90
12655;DHT22;6392;44.644;11.448;2023-03-01T02:49:19;5.80;99.90
12655;DHT22;6392;44.644;11.448;2023-03-01T02:51:56;5.80;99.90
12655;DHT22;6392;44.644;11.448;2023-03-01T02:54:29;5.80;99.90
12655;DHT22;6392;44.644;11.448;2023-03-01T02:57:00;5.70;99.90
12655;DHT22;6392;44.644;11.448;2023-03-01T02:59:31;5.80;99.90
12655;DHT22;6392;44.644;11.448;2023-03-01T03:02:00;5.80;99.90
12655;DHT22;6392;44.644;11.448;2023-03-01T03:04:28;5.80;99.90
12655;DHT22;6392;44.644;11.448;2023-03-01T03:06:55;5.80;99.90
12655;DHT22;6392;44.644;11.448;2023-03-01T03:09:22;5.70;99.90
12655;DHT22;6392;44.644;11.448;2023-03-01T03:11:49;5.70;99.90
12655;DHT22;6392;44.644;11.448;2023-03-01T03:14:17;5.70;99.90
12655;DHT22;6392;44.644;11.448;2023-03-01T03:16:47;5.70;99.90
12655;DHT22;6392;44.644;11.448;2023-03-01T03:19:15;5.70;99.90
12655;DHT22;6392;44.644;11.448;2023-03-01T03:21:42;5.70;99.90
12655;DHT22;6392;44.644;11.448;2023-03-01T03:24:09;5.60;99.90
12655;DHT22;6392;44.644;11.448;2023-03-01T03:26:36;5.60;99.90
12655;DHT22;6392;44.644;11.448;2023-03-01T03:29:03;5.60;99.90
12655;DHT22;6392;44.644;11.448;2023-03-01T03:31:30;5.60;99.90
12655;DHT22;6392;44.644;11.448;2023-03-01T03:33:59;5.60;99.90
12655;DHT22;6392;44.644;11.448;2023-03-01T03:36:26;5.60;99.90
12655;DHT22;6392;44.644;11.448;2023-03-01T03:38:53;5.60;99.90
12655;DHT22;6392;44.644;11.448;2023-03-01T03:41:20;5.50;99.90
12655;DHT22;6392;44.644;11.448;2023-03-01T03:43:47;5.60;99.90
12655;DHT22;6392;44.644;11.448;2023-03-01T03:46:14;5.60;99.90
12655;DHT22;6392;44.644;11.448;2023-03-01T03:48:43;5.60;99.90
12655;DHT22;6392;44.644;11.448;2023-03-01T03:51:14;5.60;99.90
12655;DHT22;6392;44.644;11.448;2023-03-01T03:53:42;5.60;99.90
12655;DHT22;6392;44.644;11.448;2023-03-01T03:56:09;5.60;99.90
12655;DHT22;6392;44.644;11.448;2023-03-01T03:58:37;5.60;99.90
12655;DHT22;6392;44.644;11.448;2023-03-01T04:01:04;5.60;99.90
12655;DHT22;6392;44.644;11.448;2023-03-01T04:03:32;5.60;99.90
12655;DHT22;6392;44.644;11.448;2023-03-01T04:06:01;5.60;99.90
12655;DHT22;6392;44.644;11.448;2023-03-01T04:08:30;5.60;99.90
12655;DHT22;6392;44.644;11.448;2023-03-01T04:11:00;5.60;99.90
12655;DHT22;6392;44.644;11.448;2023-03-01T04:13:47;5.50;99.90
12655;DHT22;6392;44.644;11.448;2023-03-01T04:16:14;5.50;99.90
12655;DHT22;6392;44.644;11.448;2023-03-01T04:18:41;5.50;99.90
12655;DHT22;6392;44.644;11.448;2023-03-01T04:21:08;5.50;99.90
12655;DHT22;6392;44.644;11.448;2023-03-01T04:23:38;5.50;99.90
12655;DHT22;6392;44.644;11.448;2023-03-01T04:26:06;5.60;99.90
12655;DHT22;6392;44.644;11.448;2023-03-01T04:28:36;5.50;99.90
12655;DHT22;6392;44.644;11.448;2023-03-01T04:31:04;5.60;99.90
12655;DHT22;6392;44.644;11.448;2023-03-01T04:33:39;5.60;99.90
12655;DHT22;6392;44.644;11.448;2023-03-01T04:36:07;5.60;99.90
12655;DHT22;6392;44.644;11.448;2023-03-01T04:38:35;5.60;99.90
12655;DHT22;6392;44.644;11.448;2023-03-01T04:41:05;5.60;99.90
12655;DHT22;6392;44.644;11.448;2023-03-01T04:43:33;5.50;99.90
12655;DHT22;6392;44.644;11.448;2023-03-01T04:46:01;5.60;99.90
12655;DHT22;6392;44.644;11.448;2023-03-01T04:48:29;5.50;99.90
12655;DHT22;6392;44.644;11.448;2023-03-01T04:50:58;5.50;99.90
12655;DHT22;6392;44.644;11.448;2023-03-01T04:53:25;5.50;99.90
12655;DHT22;6392;44.644;11.448;2023-03-01T04:55:53;5.50;99.90
12655;DHT22;6392;44.644;11.448;2023-03-01T04:58:22;5.50;99.90
12655;DHT22;6392;44.644;11.448;2023-03-01T05:00:49;5.50;99.90
12655;DHT22;6392;44.644;11.448;2023-03-01T05:03:16;5.50;99.90
12655;DHT22;6392;44.644;11.448;2023-03-01T05:05:45;5.50;99.90
12655;DHT22;6392;44.644;11.448;2023-03-01T05:08:13;5.40;99.90
12655;DHT22;6392;44.644;11.448;2023-03-01T05:10:45;5.50;99.90
12655;DHT22;6392;44.644;11.448;2023-03-01T05:13:13;5.40;99.90
12655;DHT22;6392;44.644;11.448;2023-03-01T05:15:46;5.40;99.90
12655;DHT22;6392;44.644;11.448;2023-03-01T05:18:13;5.40;99.90
12655;DHT22;6392;44.644;11.448;2023-03-01T05:20:40;5.40;99.90
12655;DHT22;6392;44.644;11.448;2023-03-01T05:23:07;5.40;99.90
12655;DHT22;6392;44.644;11.448;2023-03-01T05:25:34;5.40;99.90
12655;DHT22;6392;44.644;11.448;2023-03-01T05:28:06;5.30;99.90
12655;DHT22;6392;44.644;11.448;2023-03-01T05:30:36;5.40;99.90
12655;DHT22;6392;44.644;11.448;2023-03-01T05:33:06;5.30;99.90
12655;DHT22;6392;44.644;11.448;2023-03-01T05:35:39;5.30;99.90
12655;DHT22;6392;44.644;11.448;2023-03-01T05:38:06;5.20;99.90
12655;DHT22;6392;44.644;11.448;2023-03-01T05:40:34;5.10;99.90
12655;DHT22;6392;44.644;11.448;2023-03-01T05:43:01;5.10;99.90
12655;DHT22;6392;44.644;11.448;2023-03-01T05:45:31;5.00;99.90
12655;DHT22;6392;44.644;11.448;2023-03-01T05:47:59;5.00;99.90
12655;DHT22;6392;44.644;11.448;2023-03-01T05:50:29;5.00;99.90
12655;DHT22;6392;44.644;11.448;2023-03-01T05:53:01;5.00;99.90
12655;DHT22;6392;44.644;11.448;2023-03-01T05:55:29;5.00;99.90
12655;DHT22;6392;44.644;11.448;2023-03-01T05:57:58;5.00;99.90
12655;DHT22;6392;44.644;11.448;2023-03-01T06:00:26;5.00;99.90
12655;DHT22;6392;44.644;11.448;2023-03-01T06:02:53;5.00;99.90
12655;DHT22;6392;44.644;11.448;2023-03-01T06:05:21;5.00;99.90
12655;DHT22;6392;44.644;11.448;2023-03-01T06:07:49;5.00;99.90
12655;DHT22;6392;44.644;11.448;2023-03-01T06:10:17;5.00;99.90
12655;DHT22;6392;44.644;11.448;2023-03-01T06:12:44;5.00;99.90
12655;DHT22;6392;44.644;11.448;2023-03-01T06:15:12;5.00;99.90
12655;DHT22;6392;44.644;11.448;2023-03-01T06:17:41;5.00;99.90
12655;DHT22;6392;44.644;11.448;2023-03-01T06:20:10;5.00;99.90
12655;DHT22;6392;44.644;11.448;2023-03-01T06:22:38;5.00;99.90
12655;DHT22;6392;44.644;11.448;2023-03-01T06:25:07;5.10;99.90
12655;DHT22;6392;44.644;11.448;2023-03-01T06:27:35;5.00;99.90
12655;DHT22;6392;44.644;11.448;2023-03-01T06:30:02;5.00;99.90
12655;DHT22;6392;44.644;11.448;2023-03-01T06:32:30;5.10;99.90
12655;DHT22;6392;44.644;11.448;2023-03-01T06:34:57;5.10;99.90
12655;DHT22;6392;44.644;11.448;2023-03-01T06:37:25;5.10;99.90
12655;DHT22;6392;44.644;11.448;2023-03-01T06:39:52;5.10;99.90
12655;DHT22;6392;44.644;11.448;2023-03-01T06:42:22;5.10;99.90
12655;DHT22;6392;44.644;11.448;2023-03-01T06:44:49;5.20;99.90
12655;DHT22;6392;44.644;11.448;2023-03-01T06:47:16;5.20;99.90
12655;DHT22;6392;44.644;11.448;2023-03-01T06:49:43;5.20;99.90
12655;DHT22;6392;44.644;11.448;2023-03-01T06:52:10;5.20;99.90
12655;DHT22;6392;44.644;11.448;2023-03-01T06:54:37;5.10;99.90
12655;DHT22;6392;44.644;11.448;2023-03-01T06:57:04;5.10;99.90
12655;DHT22;6392;44.644;11.448;2023-03-01T06:59:32;5.10;99.90
12655;DHT22;6392;44.644;11.448;2023-03-01T07:01:59;5.10;99.90
12655;DHT22;6392;44.644;11.448;2023-03-01T07:04:26;5.10;99.90
12655;DHT22;6392;44.644;11.448;2023-03-01T07:06:56;5.10;99.90
12655;DHT22;6392;44.644;11.448;2023-03-01T07:09:23;5.20;99.90
12655;DHT22;6392;44.644;11.448;2023-03-01T07:11:50;5.20;99.90
12655;DHT22;6392;44.644;11.448;2023-03-01T07:14:17;5.20;99.90
12655;DHT22;6392;44.644;11.448;2023-03-01T07:16:46;5.20;99.90
12655;DHT22;6392;44.644;11.448;2023-03-01T07:19:13;5.20;99.90
12655;DHT22;6392;44.644;11.448;2023-03-01T07:21:40;5.20;99.90
12655;DHT22;6392;44.644;11.448;2023-03-01T07:24:08;5.20;99.90
12655;DHT22;6392;44.644;11.448;2023-03-01T07:26:35;5.30;99.90
12655;DHT22;6392;44.644;11.448;2023-03-01T07:29:03;5.30;99.90
12655;DHT22;6392;44.644;11.448;2023-03-01T07:31:31;5.40;99.90
12655;DHT22;6392;44.644;11.448;2023-03-01T07:33:59;5.40;99.90
12655;DHT22;6392;44.644;11.448;2023-03-01T07:36:26;5.40;99.90
12655;DHT22;6392;44.644;11.448;2023-03-01T07:38:53;5.40;99.90
12655;DHT22;6392;44.644;11.448;2023-03-01T07:41:21;5.40;99.90
12655;DHT22;6392;44.644;11.448;2023-03-01T07:43:48;5.40;99.90
12655;DHT22;6392;44.644;11.448;2023-03-01T07:46:15;5.40;99.90
12655;DHT22;6392;44.644;11.448;2023-03-01T07:48:44;5.40;99.90
12655;DHT22;6392;44.644;11.448;2023-03-01T07:51:12;5.40;99.90
12655;DHT22;6392;44.644;11.448;2023-03-01T07:53:40;5.40;99.90
12655;DHT22;6392;44.644;11.448;2023-03-01T07:56:09;5.50;99.90
12655;DHT22;6392;44.644;11.448;2023-03-01T07:58:37;5.50;99.90
12655;DHT22;6392;44.644;11.448;2023-03-01T08:01:06;5.60;99.90
12655;DHT22;6392;44.644;11.448;2023-03-01T08:03:34;5.50;99.90
12655;DHT22;6392;44.644;11.448;2023-03-01T08:06:02;5.60;99.90
12655;DHT22;6392;44.644;11.448;2023-03-01T08:08:31;5.50;99.90
12655;DHT22;6392;44.644;11.448;2023-03-01T08:10:59;5.60;99.90
12655;DHT22;6392;44.644;11.448;2023-03-01T08:13:27;5.60;99.90
12655;DHT22;6392;44.644;11.448;2023-03-01T08:15:54;5.60;99.90
12655;DHT22;6392;44.644;11.448;2023-03-01T08:18:21;5.70;99.90
12655;DHT22;6392;44.644;11.448;2023-03-01T08:20:48;5.70;99.90
12655;DHT22;6392;44.644;11.448;2023-03-01T08:23:15;5.80;99.90
12655;DHT22;6392;44.644;11.448;2023-03-01T08:25:44;5.90;99.90
12655;DHT22;6392;44.644;11.448;2023-03-01T08:28:11;6.00;99.90
12655;DHT22;6392;44.644;11.448;2023-03-01T08:30:38;5.90;99.90
12655;DHT22;6392;44.644;11.448;2023-03-01T08:33:05;5.90;99.90
12655;DHT22;6392;44.644;11.448;2023-03-01T08:35:32;5.90;99.90
12655;DHT22;6392;44.644;11.448;2023-03-01T08:37:59;5.80;99.90
12655;DHT22;6392;44.644;11.448;2023-03-01T08:40:26;5.80;99.90
12655;DHT22;6392;44.644;11.448;2023-03-01T08:42:54;5.90;99.90
12655;DHT22;6392;44.644;11.448;2023-03-01T08:45:21;5.70;99.90
12655;DHT22;6392;44.644;11.448;2023-03-01T08:47:52;5.90;99.90
12655;DHT22;6392;44.644;11.448;2023-03-01T08:50:19;5.90;99.90
12655;DHT22;6392;44.644;11.448;2023-03-01T08:52:46;6.00;99.90
12655;DHT22;6392;44.644;11.448;2023-03-01T08:55:13;6.00;99.90
12655;DHT22;6392;44.644;11.448;2023-03-01T08:57:41;6.00;99.90
12655;DHT22;6392;44.644;11.448;2023-03-01T09:00:11;6.00;99.90
12655;DHT22;6392;44.644;11.448;2023-03-01T09:02:40;5.90;99.90
12655;DHT22;6392;44.644;11.448;2023-03-01T09:05:08;5.80;99.90
12655;DHT22;6392;44.644;11.448;2023-03-01T09:07:35;5.80;99.90
12655;DHT22;6392;44.644;11.448;2023-03-01T09:10:02;5.70;99.90
12655;DHT22;6392;44.644;11.448;2023-03-01T09:12:30;5.70;99.90
12655;DHT22;6392;44.644;11.448;2023-03-01T09:14:57;5.70;99.90
12655;DHT22;6392;44.644;11.448;2023-03-01T09:17:26;5.70;99.90
12655;DHT22;6392;44.644;11.448;2023-03-01T09:19:53;5.70;99.90
12655;DHT22;6392;44.644;11.448;2023-03-01T09:22:20;5.70;99.90
12655;DHT22;6392;44.644;11.448;2023-03-01T09:24:47;5.70;99.90
12655;DHT22;6392;44.644;11.448;2023-03-01T09:27:14;5.60;99.90
12655;DHT22;6392;44.644;11.448;2023-03-01T09:29:44;5.70;99.90
12655;DHT22;6392;44.644;11.448;2023-03-01T09:32:11;5.70;99.90
12655;DHT22;6392;44.644;11.448;2023-03-01T09:34:39;5.60;99.90
12655;DHT22;6392;44.644;11.448;2023-03-01T09:37:20;5.60;99.90
12655;DHT22;6392;44.644;11.448;2023-03-01T09:39:47;5.60;99.90
12655;DHT22;6392;44.644;11.448;2023-03-01T09:42:15;5.50;99.90
12655;DHT22;6392;44.644;11.448;2023-03-01T09:44:47;5.50;99.90
12655;DHT22;6392;44.644;11.448;2023-03-01T09:47:18;5.50;99.90
12655;DHT22;6392;44.644;11.448;2023-03-01T09:49:56;5.40;99.90
12655;DHT22;6392;44.644;11.448;2023-03-01T09:52:29;5.30;99.90
12655;DHT22;6392;44.644;11.448;2023-03-01T09:55:00;5.30;99.90
12655;DHT22;6392;44.644;11.448;2023-03-01T09:57:33;5.20;99.90
12655;DHT22;6392;44.644;11.448;2023-03-01T10:00:20;5.10;99.90
12655;DHT22;6392;44.644;11.448;2023-03-01T10:02:57;5.10;99.90
12655;DHT22;6392;44.644;11.448;2023-03-01T10:05:37;5.10;99.90
12655;DHT22;6392;44.644;11.448;2023-03-01T10:08:26;5.20;99.90
12655;DHT22;6392;44.644;11.448;2023-03-01T10:10:55;5.20;99.90
12655;DHT22;6392;44.644;11.448;2023-03-01T10:13:26;5.20;99.90
12655;DHT22;6392;44.644;11.448;2023-03-01T10:15:57;5.20;99.90
12655;DHT22;6392;44.644;11.448;2023-03-01T10:18:29;5.10;99.90
12655;DHT22;6392;44.644;11.448;2023-03-01T10:21:01;5.10;99.90
12655;DHT22;6392;44.644;11.448;2023-03-01T10:23:31;5.20;99.90
12655;DHT22;6392;44.644;11.448;2023-03-01T10:26:13;5.20;99.90
12655;DHT22;6392;44.644;11.448;2023-03-01T10:28:53;5.20;99.90
12655;DHT22;6392;44.644;11.448;2023-03-01T10:31:27;5.10;99.90
12655;DHT22;6392;44.644;11.448;2023-03-01T10:34:02;5.10;99.90
12655;DHT22;6392;44.644;11.448;2023-03-01T10:36:33;5.10;99.90
12655;DHT22;6392;44.644;11.448;2023-03-01T10:39:05;5.20;99.90
12655;DHT22;6392;44.644;11.448;2023-03-01T10:41:52;5.30;99.90
12655;DHT22;6392;44.644;11.448;2023-03-01T10:44:36;5.30;99.90
12655;DHT22;6392;44.644;11.448;2023-03-01T10:47:03;5.40;99.90
12655;DHT22;6392;44.644;11.448;2023-03-01T10:49:31;5.50;99.90
12655;DHT22;6392;44.644;11.448;2023-03-01T10:52:18;5.40;99.90
12655;DHT22;6392;44.644;11.448;2023-03-01T10:54:52;5.40;99.90
12655;DHT22;6392;44.644;11.448;2023-03-01T10:57:38;5.40;99.90
12655;DHT22;6392;44.644;11.448;2023-03-01T11:00:22;5.40;99.90
12655;DHT22;6392;44.644;11.448;2023-03-01T11:03:01;5.40;99.90
12655;DHT22;6392;44.644;11.448;2023-03-01T11:05:29;5.40;99.90
12655;DHT22;6392;44.644;11.448;2023-03-01T11:08:02;5.40;99.90
12655;DHT22;6392;44.644;11.448;2023-03-01T11:10:31;5.40;99.90
12655;DHT22;6392;44.644;11.448;2023-03-01T11:13:13;5.40;99.90
12655;DHT22;6392;44.644;11.448;2023-03-01T11:15:41;5.50;99.90
12655;DHT22;6392;44.644;11.448;2023-03-01T11:18:20;5.60;99.90
12655;DHT22;6392;44.644;11.448;2023-03-01T11:20:48;5.60;99.90
12655;DHT22;6392;44.644;11.448;2023-03-01T11:23:17;5.70;99.90
12655;DHT22;6392;44.644;11.448;2023-03-01T11:25:49;5.70;99.90
12655;DHT22;6392;44.644;11.448;2023-03-01T11:28:19;5.70;99.90
12655;DHT22;6392;44.644;11.448;2023-03-01T11:30:51;5.70;99.90
12655;DHT22;6392;44.644;11.448;2023-03-01T11:33:29;5.60;99.90
12655;DHT22;6392;44.644;11.448;2023-03-01T11:36:02;5.60;99.90
12655;DHT22;6392;44.644;11.448;2023-03-01T11:38:35;5.50;99.90
12655;DHT22;6392;44.644;11.448;2023-03-01T11:41:06;5.40;99.90
12655;DHT22;6392;44.644;11.448;2023-03-01T11:43:41;5.40;99.90
12655;DHT22;6392;44.644;11.448;2023-03-01T11:46:39;5.40;99.90
12655;DHT22;6392;44.644;11.448;2023-03-01T11:52:08;5.30;99.90
12655;DHT22;6392;44.644;11.448;2023-03-01T11:54:50;5.30;99.90
12655;DHT22;6392;44.644;11.448;2023-03-01T11:57:33;5.40;99.90
12655;DHT22;6392;44.644;11.448;2023-03-01T12:00:16;5.40;99.90
12655;DHT22;6392;44.644;11.448;2023-03-01T12:03:00;5.40;99.90
12655;DHT22;6392;44.644;11.448;2023-03-01T12:05:56;5.30;99.90
12655;DHT22;6392;44.644;11.448;2023-03-01T12:08:34;5.30;99.90
12655;DHT22;6392;44.644;11.448;2023-03-01T12:11:13;5.30;99.90
12655;DHT22;6392;44.644;11.448;2023-03-01T12:13:59;5.20;99.90
12655;DHT22;6392;44.644;11.448;2023-03-01T12:16:48;5.20;99.90
12655;DHT22;6392;44.644;11.448;2023-03-01T12:19:33;5.20;99.90
12655;DHT22;6392;44.644;11.448;2023-03-01T12:22:22;5.10;99.90
12655;DHT22;6392;44.644;11.448;2023-03-01T12:25:20;5.10;99.90
12655;DHT22;6392;44.644;11.448;2023-03-01T12:28:22;5.00;99.90
12655;DHT22;6392;44.644;11.448;2023-03-01T12:31:15;5.00;99.90
12655;DHT22;6392;44.644;11.448;2023-03-01T12:33:52;5.00;99.90
12655;DHT22;6392;44.644;11.448;2023-03-01T12:36:52;5.00;99.90
12655;DHT22;6392;44.644;11.448;2023-03-01T12:39:32;5.00;99.90
12655;DHT22;6392;44.644;11.448;2023-03-01T12:42:12;5.00;99.90
12655;DHT22;6392;44.644;11.448;2023-03-01T12:44:59;5.00;99.90
12655;DHT22;6392;44.644;11.448;2023-03-01T12:47:44;5.00;99.90
12655;DHT22;6392;44.644;11.448;2023-03-01T12:50:20;4.90;99.90
12655;DHT22;6392;44.644;11.448;2023-03-01T12:52:50;4.80;99.90
12655;DHT22;6392;44.644;11.448;2023-03-01T12:55:28;4.80;99.90
12655;DHT22;6392;44.644;11.448;2023-03-01T12:58:02;4.70;99.90
12655;DHT22;6392;44.644;11.448;2023-03-01T13:00:37;4.70;99.90
12655;DHT22;6392;44.644;11.448;2023-03-01T13:03:26;4.60;99.90
12655;DHT22;6392;44.644;11.448;2023-03-01T13:06:04;4.60;99.90
12655;DHT22;6392;44.644;11.448;2023-03-01T13:08:41;4.60;99.90
12655;DHT22;6392;44.644;11.448;2023-03-01T13:11:16;4.60;99.90
12655;DHT22;6392;44.644;11.448;2023-03-01T13:13:44;4.60;99.90
12655;DHT22;6392;44.644;11.448;2023-03-01T13:16:39;4.50;99.90
12655;DHT22;6392;44.644;11.448;2023-03-01T13:19:12;4.40;99.90
12655;DHT22;6392;44.644;11.448;2023-03-01T13:21:40;4.30;99.90
12655;DHT22;6392;44.644;11.448;2023-03-01T13:24:26;4.20;99.90
12655;DHT22;6392;44.644;11.448;2023-03-01T13:27:11;4.10;99.90
12655;DHT22;6392;44.644;11.448;2023-03-01T13:29:45;4.00;99.90
12655;DHT22;6392;44.644;11.448;2023-03-01T13:32:24;3.90;99.90
12655;DHT22;6392;44.644;11.448;2023-03-01T13:34:58;3.90;99.90
12655;DHT22;6392;44.644;11.448;2023-03-01T13:37:35;3.80;99.90
12655;DHT22;6392;44.644;11.448;2023-03-01T13:42:50;3.80;99.90
12655;DHT22;6392;44.644;11.448;2023-03-01T13:45:34;3.70;99.90
12655;DHT22;6392;44.644;11.448;2023-03-01T13:48:10;3.80;99.90
12655;DHT22;6392;44.644;11.448;2023-03-01T13:50:45;3.80;99.90
12655;DHT22;6392;44.644;11.448;2023-03-01T13:53:17;3.80;99.90
12655;DHT22;6392;44.644;11.448;2023-03-01T13:55:46;3.90;99.90
12655;DHT22;6392;44.644;11.448;2023-03-01T13:58:23;3.90;99.90
12655;DHT22;6392;44.644;11.448;2023-03-01T14:01:01;3.90;99.90
12655;DHT22;6392;44.644;11.448;2023-03-01T14:03:31;4.00;99.90
12655;DHT22;6392;44.644;11.448;2023-03-01T14:06:01;3.90;99.90
12655;DHT22;6392;44.644;11.448;2023-03-01T14:08:29;3.90;99.90
12655;DHT22;6392;44.644;11.448;2023-03-01T14:14:25;3.80;99.90
12655;DHT22;6392;44.644;11.448;2023-03-01T14:17:02;3.80;99.90
12655;DHT22;6392;44.644;11.448;2023-03-01T14:19:33;3.80;99.90
12655;DHT22;6392;44.644;11.448;2023-03-01T14:22:12;3.70;99.90
12655;DHT22;6392;44.644;11.448;2023-03-01T14:24:44;3.70;99.90
12655;DHT22;6392;44.644;11.448;2023-03-01T14:27:13;3.80;99.90
12655;DHT22;6392;44.644;11.448;2023-03-01T14:29:41;3.80;99.90
12655;DHT22;6392;44.644;11.448;2023-03-01T14:32:10;3.70;99.90
12655;DHT22;6392;44.644;11.448;2023-03-01T14:34:43;3.70;99.90
12655;DHT22;6392;44.644;11.448;2023-03-01T14:37:17;3.70;99.90
12655;DHT22;6392;44.644;11.448;2023-03-01T14:39:45;3.70;99.90
12655;DHT22;6392;44.644;11.448;2023-03-01T14:42:13;3.70;99.90
12655;DHT22;6392;44.644;11.448;2023-03-01T14:44:42;3.70;99.90
12655;DHT22;6392;44.644;11.448;2023-03-01T14:47:13;3.70;99.90
12655;DHT22;6392;44.644;11.448;2023-03-01T14:49:43;3.70;99.90
12655;DHT22;6392;44.644;11.448;2023-03-01T14:52:19;3.70;99.90
12655;DHT22;6392;44.644;11.448;2023-03-01T14:54:49;3.70;99.90
12655;DHT22;6392;44.644;11.448;2023-03-01T14:57:19;3.70;99.90
12655;DHT22;6392;44.644;11.448;2023-03-01T14:59:47;3.70;99.90
12655;DHT22;6392;44.644;11.448;2023-03-01T15:02:18;3.80;99.90
12655;DHT22;6392;44.644;11.448;2023-03-01T15:04:49;3.70;99.90
12655;DHT22;6392;44.644;11.448;2023-03-01T15:07:17;3.70;99.90
12655;DHT22;6392;44.644;11.448;2023-03-01T15:09:46;3.80;99.90
12655;DHT22;6392;44.644;11.448;2023-03-01T15:12:35;3.80;99.90
12655;DHT22;6392;44.644;11.448;2023-03-01T15:15:31;3.80;99.90
12655;DHT22;6392;44.644;11.448;2023-03-01T15:18:00;3.80;99.90
12655;DHT22;6392;44.644;11.448;2023-03-01T15:20:30;3.80;99.90
12655;DHT22;6392;44.644;11.448;2023-03-01T15:23:01;3.70;99.90
12655;DHT22;6392;44.644;11.448;2023-03-01T15:25:30;3.70;99.90
12655;DHT22;6392;44.644;11.448;2023-03-01T15:27:59;3.70;99.90
12655;DHT22;6392;44.644;11.448;2023-03-01T15:30:30;3.80;99.90
12655;DHT22;6392;44.644;11.448;2023-03-01T15:33:25;3.80;99.90
12655;DHT22;6392;44.644;11.448;2023-03-01T15:35:56;3.70;99.90
12655;DHT22;6392;44.644;11.448;2023-03-01T15:38:35;3.70;99.90
12655;DHT22;6392;44.644;11.448;2023-03-01T15:41:21;3.70;99.90
12655;DHT22;6392;44.644;11.448;2023-03-01T15:43:49;3.70;99.90
12655;DHT22;6392;44.644;11.448;2023-03-01T15:46:19;3.70;99.90
12655;DHT22;6392;44.644;11.448;2023-03-01T15:48:47;3.70;99.90
12655;DHT22;6392;44.644;11.448;2023-03-01T15:51:22;3.70;99.90
12655;DHT22;6392;44.644;11.448;2023-03-01T15:53:54;3.60;99.90
12655;DHT22;6392;44.644;11.448;2023-03-01T15:56:21;3.60;99.90
12655;DHT22;6392;44.644;11.448;2023-03-01T15:58:48;3.60;99.90
12655;DHT22;6392;44.644;11.448;2023-03-01T16:01:16;3.60;99.90
12655;DHT22;6392;44.644;11.448;2023-03-01T16:03:43;3.60;99.90
12655;DHT22;6392;44.644;11.448;2023-03-01T16:06:11;3.60;99.90
12655;DHT22;6392;44.644;11.448;2023-03-01T16:08:40;3.60;99.90
12655;DHT22;6392;44.644;11.448;2023-03-01T16:11:15;3.60;99.90
12655;DHT22;6392;44.644;11.448;2023-03-01T16:13:42;3.60;99.90
12655;DHT22;6392;44.644;11.448;2023-03-01T16:16:11;3.60;99.90
12655;DHT22;6392;44.644;11.448;2023-03-01T16:18:41;3.60;99.90